Time;durP1;ratioP1;P1;durP2;ratioP2;P2;SDS_P1;SDS_P2;PMS_P1;PMS_P2;Temp;Humidity;BMP_temperature;BMP_pressure;BME280_temperature;BME280_humidity;BME280_pressure;Samples;Min_cycle;Max_cycle;Signal;HPM_P1;HPM_P2
2022/10/25 05:01:25;;;;;;;;;;;;;;;11.75;100.00;99684.06;5605389;23;20315;-86
2022/10/25 05:03:50;;;;;;;;;;;;;;;11.76;100.00;99677.00;5005537;28;19922;-86
2022/10/25 05:06:17;;;;;;;;;;;;;;;11.76;100.00;99685.81;5006570;28;19920;-85
2022/10/25 05:08:43;;;;;;;;;;;;;;;11.79;100.00;99690.97;5006927;28;19998;-87
2022/10/25 05:11:09;;;;;;;;;;;;;;;11.79;100.00;99687.44;5022984;28;19917;-84
2022/10/25 05:13:36;;;;;;;;;;;;;;;11.79;100.00;99690.09;5006591;28;19913;-84
2022/10/25 05:16:01;;;;;;;;;;;;;;;11.80;100.00;99691.81;5021783;28;19967;-86
2022/10/25 05:18:27;;;;;;;;;;;;;;;11.80;100.00;99690.00;5006397;28;19917;-83
2022/10/25 05:20:58;;;;;;;;;;;;;;;11.81;100.00;99688.22;5024323;28;19925;-84
2022/10/25 05:23:23;;;;;;;;;;;;;;;11.82;100.00;99684.63;5023156;28;19928;-85
2022/10/25 05:25:58;;;;;;;;;;;;;;;11.81;100.00;99686.44;5024081;28;19917;-85
2022/10/25 05:28:24;;;;;;;;;;;;;;;11.81;100.00;99685.56;5005775;28;20287;-87
2022/10/25 05:30:49;;;;;;;;;;;;;;;11.84;100.00;99682.78;5022634;28;19917;-84
2022/10/25 05:33:14;;;;;;;;;;;;;;;11.84;100.00;99695.16;5024002;28;19921;-85
2022/10/25 05:35:39;;;;;;;;;;;;;;;11.85;100.00;99683.63;5023844;28;19967;-85
2022/10/25 05:38:05;;;;;;;;;;;;;;;11.81;100.00;99683.78;5023539;28;20019;-84
2022/10/25 05:40:30;;;;;;;;;;;;;;;11.82;100.00;99687.28;5023375;28;19922;-84
2022/10/25 05:42:55;;;;;;;;;;;;;;;11.85;100.00;99683.63;5024067;28;19921;-84
2022/10/25 05:45:21;;;;;;;;;;;;;;;11.84;100.00;99697.81;5022150;28;19996;-84
2022/10/25 05:47:46;;;;;;;;;;;;;;;11.84;100.00;99697.81;5023318;28;19921;-86
2022/10/25 05:50:12;;;;;;;;;;;;;;;11.85;100.00;99697.75;5005851;28;19917;-85
2022/10/25 05:52:41;;;;;;;;;;;;;;;11.86;100.00;99703.94;5023692;28;19953;-84
2022/10/25 05:55:06;;;;;;;;;;;;;;;11.87;100.00;99692.34;5023551;28;20082;-86
2022/10/25 05:57:34;;;;;;;;;;;;;;;11.85;100.00;99688.94;5023138;28;19917;-90
2022/10/25 06:00:02;;;;;;;;;;;;;;;11.86;100.00;99699.47;5023743;28;20050;-90
2022/10/25 06:02:28;;;;;;;;;;;;;;;11.86;100.00;99703.94;5022081;28;19929;-92
2022/10/25 06:04:53;;;;;;;;;;;;;;;11.87;100.00;99702.97;5023728;28;19923;-91
2022/10/25 06:07:20;;;;;;;;;;;;;;;11.88;100.00;99710.03;5005802;28;19975;-91
2022/10/25 06:09:46;;;;;;;;;;;;;;;11.87;100.00;99719.78;5004849;28;19956;-85
2022/10/25 06:12:11;;;;;;;;;;;;;;;11.88;100.00;99704.72;5023427;28;20335;-87
2022/10/25 06:14:36;;;;;;;;;;;;;;;11.88;100.00;99715.34;5023792;28;20003;-87
2022/10/25 06:17:04;;;;;;;;;;;;;;;11.88;100.00;99718.84;5004393;28;19956;-89
2022/10/25 06:19:32;;;;;;;;;;;;;;;11.92;100.00;99719.59;5005527;28;19971;-89
2022/10/25 06:21:57;;;;;;;;;;;;;;;11.90;100.00;99719.63;5022139;28;19971;-86
2022/10/25 06:24:22;;;;;;;;;;;;;;;11.92;100.00;99722.25;5024290;28;19918;-89
2022/10/25 06:26:48;;;;;;;;;;;;;;;11.92;100.00;99732.88;5022492;28;19928;-88
2022/10/25 06:29:13;;;;;;;;;;;;;;;11.93;100.00;99729.25;5005747;28;19978;-85
2022/10/25 06:31:43;;;;;;;;;;;;;;;11.90;100.00;99730.25;5021583;28;20618;-87
2022/10/25 06:34:11;;;;;;;;;;;;;;;11.93;100.00;99731.91;5022564;28;19928;-85
2022/10/25 06:36:38;;;;;;;;;;;;;;;11.94;100.00;99737.16;5023370;28;19925;-87
2022/10/25 06:39:06;;;;;;;;;;;;;;;11.96;100.00;99740.59;5023384;28;20382;-86
2022/10/25 06:41:31;;;;;;;;;;;;;;;11.96;100.00;99745.91;5004655;28;19991;-87
2022/10/25 07:38:41;;;;;;;;;;;;;;;12.00;100.00;99805.06;5764141;23;19933;-90
2022/10/25 07:41:07;;;;;;;;;;;;;;;12.03;100.00;99809.34;4993590;28;20379;-89
2022/10/25 07:43:33;;;;;;;;;;;;;;;12.03;100.00;99802.25;5022111;28;20033;-94
2022/10/25 07:45:58;;;;;;;;;;;;;;;12.14;100.00;99812.31;5004526;28;20379;-85
2022/10/25 07:48:27;;;;;;;;;;;;;;;12.78;100.00;99808.25;5021399;28;19921;-89
2022/10/25 07:51:25;;;;;;;;;;;;;;;12.40;100.00;99811.03;5005328;28;19917;-92
2022/10/25 07:53:54;;;;;;;;;;;;;;;12.25;100.00;99814.47;5020576;28;19924;-90
2022/10/25 07:56:22;;;;;;;;;;;;;;;12.29;100.00;99824.84;5021058;28;19984;-88
2022/10/25 07:58:47;;;;;;;;;;;;;;;12.28;100.00;99824.94;5021923;28;19921;-91
2022/10/25 08:01:20;;;;;;;;;;;;;;;12.28;100.00;99814.31;5021723;28;19925;-89
2022/10/25 08:03:45;;;;;;;;;;;;;;;12.96;100.00;99819.72;5003050;28;19986;-85
2022/10/25 08:06:10;;;;;;;;;;;;;;;13.51;100.00;99813.25;5021575;28;20375;-86
2022/10/25 08:08:35;;;;;;;;;;;;;;;12.99;100.00;99811.59;5020008;28;19921;-86
2022/10/25 08:11:06;;;;;;;;;;;;;;;12.71;100.00;99818.31;5021462;28;19922;-89
2022/10/25 08:13:42;;;;;;;;;;;;;;;;;;;;;
2022/10/25 08:16:15;;;;;;;;;;;;;;;12.51;100.00;99826.47;5021168;28;19928;-90
2022/10/25 08:18:41;;;;;;;;;;;;;;;12.47;100.00;99835.50;5003964;28;19921;-87
2022/10/25 08:21:09;;;;;;;;;;;;;;;12.46;100.00;99834.66;5022315;28;19928;-88
2022/10/25 08:23:37;;;;;;;;;;;;;;;12.43;100.00;99833.94;5002633;28;19917;-90
2022/10/25 08:26:05;;;;;;;;;;;;;;;12.40;100.00;99832.31;5005034;28;20347;-91
2022/10/25 08:28:30;;;;;;;;;;;;;;;12.39;100.00;99837.69;4998644;28;19921;-89
2022/10/25 08:30:56;;;;;;;;;;;;;;;12.37;100.00;99829.81;5003549;28;20000;-88
2022/10/25 08:33:21;;;;;;;;;;;;;;;12.38;100.00;99825.34;5003106;28;19976;-88
2022/10/25 08:35:51;;;;;;;;;;;;;;;12.35;100.00;99826.38;4986766;28;19929;-91
2022/10/25 08:38:19;;;;;;;;;;;;;;;12.34;100.00;99821.97;4985746;28;19918;-87
2022/10/25 08:41:13;;;;;;;;;;;;;;;;;;;;;
2022/10/25 08:43:41;;;;;;;;;;;;;;;12.33;100.00;99830.88;5002364;28;20197;-90
2022/10/25 08:46:14;;;;;;;;;;;;;;;12.31;100.00;99830.94;5003384;28;20044;-86
2022/10/25 08:48:46;;;;;;;;;;;;;;;12.32;100.00;99837.16;4999072;28;19956;-89
2022/10/25 08:51:26;;;;;;;;;;;;;;;12.33;100.00;99829.09;4986141;28;20376;-90
2022/10/25 08:53:53;;;;;;;;;;;;;;;12.32;100.00;99832.69;5018973;28;19972;-91
2022/10/25 08:56:19;;;;;;;;;;;;;;;12.33;100.00;99833.53;5006709;28;20361;-87
2022/10/25 08:58:48;;;;;;;;;;;;;;;12.34;100.00;99827.28;5006934;28;19925;-87
2022/10/25 09:01:18;;;;;;;;;;;;;;;12.35;100.00;99842.31;5006678;28;19925;-86
2022/10/25 09:03:43;;;;;;;;;;;;;;;12.36;100.00;99844.00;5024757;28;20276;-91
2022/10/25 09:06:20;;;;;;;;;;;;;;;12.34;100.00;99838.78;5006385;28;19921;-87
2022/10/25 09:08:54;;;;;;;;;;;;;;;12.33;100.00;99844.16;5022478;28;20004;-91
2022/10/25 09:11:38;;;;;;;;;;;;;;;12.32;100.00;99850.44;5024416;28;19958;-88
2022/10/25 09:14:35;;;;;;;;;;;;;;;12.31;100.00;99841.56;5024450;28;19921;-91
2022/10/25 09:17:06;;;;;;;;;;;;;;;12.32;100.00;99847.78;5007798;28;19925;-91
2022/10/25 09:19:33;;;;;;;;;;;;;;;12.31;100.00;99854.00;5025195;28;20413;-90
2022/10/25 09:21:59;;;;;;;;;;;;;;;12.30;100.00;99853.16;5024748;28;19925;-91
2022/10/25 09:24:32;;;;;;;;;;;;;;;12.31;100.00;99846.03;5006797;28;19959;-91
2022/10/25 09:27:02;;;;;;;;;;;;;;;12.30;100.00;99857.59;5007083;28;20335;-86
2022/10/25 09:29:27;;;;;;;;;;;;;;;12.31;100.00;99852.19;5023401;28;19964;-91
2022/10/25 09:31:56;;;;;;;;;;;;;;;12.33;100.00;99860.09;5024589;28;19956;-91
2022/10/25 09:34:23;;;;;;;;;;;;;;;12.34;100.00;99862.69;5005682;28;19925;-93
2022/10/25 09:36:52;;;;;;;;;;;;;;;12.34;100.00;99868.00;5006129;28;19932;-90
2022/10/25 09:39:21;;;;;;;;;;;;;;;12.34;100.00;99868.00;5022131;28;19925;-86
2022/10/25 09:41:48;;;;;;;;;;;;;;;12.34;100.00;99862.69;5023576;28;20441;-89
2022/10/25 09:44:32;;;;;;;;;;;;;;;12.36;100.00;99865.25;5006371;28;20080;-84
2022/10/25 09:47:07;;;;;;;;;;;;;;;12.36;100.00;99870.56;5022889;28;20040;-89
2022/10/25 09:49:36;;;;;;;;;;;;;;;12.35;100.00;99863.56;5022766;28;20410;-86
2022/10/25 09:52:12;;;;;;;;;;;;;;;12.36;100.00;99867.91;5024180;28;20378;-90
2022/10/25 09:54:48;;;;;;;;;;;;;;;12.36;100.00;99870.56;5004247;28;19917;-89
2022/10/25 09:57:14;;;;;;;;;;;;;;;12.34;100.00;99867.16;5020906;28;20021;-87
2022/10/25 09:59:39;;;;;;;;;;;;;;;12.35;100.00;99868.88;5006693;28;19917;-87
2022/10/25 10:02:04;;;;;;;;;;;;;;;12.34;100.00;99870.66;5023306;28;20331;-88
2022/10/25 10:04:34;;;;;;;;;;;;;;;12.35;100.00;99876.84;5006284;28;19917;-86
2022/10/25 10:07:19;;;;;;;;;;;;;;;12.34;100.00;99877.78;5023246;28;19957;-85
2022/10/25 10:09:46;;;;;;;;;;;;;;;12.37;100.00;99872.31;5021657;28;19924;-88
2022/10/25 10:12:18;;;;;;;;;;;;;;;12.37;100.00;99868.81;5023174;28;19921;-87
2022/10/25 10:14:47;;;;;;;;;;;;;;;12.36;100.00;99881.22;5022083;28;19959;-89
2022/10/25 10:17:15;;;;;;;;;;;;;;;12.36;100.00;99867.91;5005579;28;19924;-87
2022/10/25 10:19:42;;;;;;;;;;;;;;;12.37;100.00;99882.09;5022749;28;19918;-88
2022/10/25 10:22:11;;;;;;;;;;;;;;;12.38;100.00;99874.03;5023895;28;19917;-86
2022/10/25 10:24:38;;;;;;;;;;;;;;;12.38;100.00;99867.84;5003529;28;19917;-86
2022/10/25 10:27:19;;;;;;;;;;;;;;;12.40;100.00;99871.28;5004191;28;19918;-88
2022/10/25 10:29:57;;;;;;;;;;;;;;;12.40;100.00;99871.28;5022794;28;20276;-85
2022/10/25 10:32:25;;;;;;;;;;;;;;;12.41;100.00;99868.56;5022463;28;19920;-85
2022/10/25 10:34:52;;;;;;;;;;;;;;;12.42;100.00;99869.44;5005281;28;20292;-85
2022/10/25 10:37:27;;;;;;;;;;;;;;;12.41;100.00;99868.56;5023078;28;19924;-88
2022/10/25 10:39:56;;;;;;;;;;;;;;;12.41;100.00;99868.56;5021689;28;19944;-86
2022/10/25 10:42:32;;;;;;;;;;;;;;;12.41;100.00;99857.06;5004976;28;19925;-85
2022/10/25 10:45:02;;;;;;;;;;;;;;;12.44;100.00;99863.09;5005754;28;19925;-87
2022/10/25 10:47:32;;;;;;;;;;;;;;;12.44;100.00;99864.91;5022120;28;19975;-86
2022/10/25 10:49:58;;;;;;;;;;;;;;;12.43;100.00;99866.69;5022291;28;19966;-86
2022/10/25 10:52:35;;;;;;;;;;;;;;;12.42;100.00;99862.31;5005675;28;19921;-88
2022/10/25 10:55:03;;;;;;;;;;;;;;;12.43;100.00;99857.84;5003539;28;19991;-86
2022/10/25 10:57:36;;;;;;;;;;;;;;;12.43;100.00;99864.03;5021765;28;20416;-86
2022/10/25 11:00:01;;;;;;;;;;;;;;;12.44;100.00;99856.91;5022600;28;19925;-87
2022/10/25 11:02:39;;;;;;;;;;;;;;;12.43;100.00;99856.06;5022123;28;20398;-87
2022/10/25 11:05:23;;;;;;;;;;;;;;;12.45;100.00;99864.81;5022424;28;19917;-88
2022/10/25 11:07:53;;;;;;;;;;;;;;;12.45;100.00;99851.53;5021348;28;19968;-86
2022/10/25 11:10:20;;;;;;;;;;;;;;;12.48;100.00;99855.84;5005170;28;19968;-88
2022/10/25 11:13:02;;;;;;;;;;;;;;;12.48;100.00;99858.50;5021709;28;19917;-90
2022/10/25 11:15:32;;;;;;;;;;;;;;;12.47;100.00;99852.31;5004930;28;20024;-89
2022/10/25 11:18:03;;;;;;;;;;;;;;;12.49;100.00;99857.53;5003244;28;20407;-88
2022/10/25 11:20:38;;;;;;;;;;;;;;;12.48;100.00;99862.00;4999101;28;19925;-88
2022/10/25 11:23:18;;;;;;;;;;;;;;;12.50;100.00;99864.59;5018753;28;19925;-87
2022/10/25 11:26:02;;;;;;;;;;;;;;;12.49;100.00;99858.44;5022507;28;19975;-87
2022/10/25 11:28:47;;;;;;;;;;;;;;;12.50;100.00;99857.47;5021245;28;19972;-91
2022/10/25 11:31:12;;;;;;;;;;;;;;;12.50;100.00;99849.50;5021863;28;19921;-86
2022/10/25 11:33:52;;;;;;;;;;;;;;;12.48;100.00;99848.72;5004669;28;19917;-86
2022/10/25 11:36:24;;;;;;;;;;;;;;;12.48;100.00;99843.41;5022037;28;19968;-86
2022/10/25 11:38:58;;;;;;;;;;;;;;;12.48;100.00;99842.56;5001931;28;20365;-90
2022/10/25 11:41:32;;;;;;;;;;;;;;;12.48;100.00;99835.44;5020188;28;20016;-86
2022/10/25 11:44:07;;;;;;;;;;;;;;;12.51;100.00;99835.28;5004238;28;19918;-89
2022/10/25 11:46:44;;;;;;;;;;;;;;;12.50;100.00;99830.03;5003679;28;19913;-86
2022/10/25 11:49:12;;;;;;;;;;;;;;;12.47;100.00;99841.69;5004525;28;19987;-88
2022/10/25 11:51:43;;;;;;;;;;;;;;;12.49;100.00;99834.50;5004209;28;20362;-87
2022/10/25 11:54:16;;;;;;;;;;;;;;;12.48;100.00;99830.13;5002765;28;20415;-91
2022/10/25 11:56:41;;;;;;;;;;;;;;;12.50;100.00;99824.72;5020293;28;20032;-88
2022/10/25 11:59:24;;;;;;;;;;;;;;;12.53;100.00;99813.94;5021628;28;19960;-90
2022/10/25 12:02:09;;;;;;;;;;;;;;;12.52;100.00;99815.75;5004483;28;19963;-85
2022/10/25 12:04:43;;;;;;;;;;;;;;;12.54;100.00;99811.22;5022655;28;19961;-86
2022/10/25 12:07:21;;;;;;;;;;;;;;;12.57;100.00;99809.34;5007997;28;19945;-84
2022/10/25 12:10:00;;;;;;;;;;;;;;;12.57;100.00;99802.22;5006910;28;19932;-86
2022/10/25 12:12:40;;;;;;;;;;;;;;;12.59;100.00;99804.78;5007772;28;20000;-90
2022/10/25 12:15:10;;;;;;;;;;;;;;;12.64;100.00;99802.78;5007668;28;19929;-84
2022/10/25 12:17:38;;;;;;;;;;;;;;;13.23;100.00;99793.44;5024790;28;19925;-87
2022/10/25 12:20:05;;;;;;;;;;;;;;;13.04;100.00;99803.38;5006951;28;19918;-87
2022/10/25 12:22:40;;;;;;;;;;;;;;;13.30;100.00;99801.09;5008217;28;19925;-84
2022/10/25 12:25:17;;;;;;;;;;;;;;;13.22;100.00;99797.03;5021992;28;19917;-89
2022/10/25 12:27:45;;;;;;;;;;;;;;;12.95;100.00;99803.84;5007845;28;19921;-88
2022/10/25 12:30:14;;;;;;;;;;;;;;;12.84;100.00;99797.28;5007772;28;19960;-90
2022/10/25 12:32:45;;;;;;;;;;;;;;;12.79;100.00;99798.47;5023740;28;19924;-89
2022/10/25 12:35:34;;;;;;;;;;;;;;;12.80;100.00;99802.84;5007348;28;19913;-89
2022/10/25 12:38:11;;;;;;;;;;;;;;;12.73;100.00;99791.66;4997769;28;19917;-88
2022/10/25 12:43:45;;;;;;;;;;;;;;;12.71;100.00;99797.03;4993046;28;19926;-90
2022/10/25 12:46:22;;;;;;;;;;;;;;;12.68;100.00;99786.59;5004015;28;19921;-88
2022/10/25 12:52:14;;;;;;;;;;;;;;;12.68;100.00;99780.41;5000922;28;19925;-88
2022/10/25 12:54:53;;;;;;;;;;;;;;;;;;;;;
2022/10/25 12:57:18;;;;;;;;;;;;;;;12.69;100.00;99776.81;5005376;28;19944;-85
2022/10/25 12:59:52;;;;;;;;;;;;;;;12.68;100.00;99769.75;5004814;28;19973;-93
2022/10/25 13:02:27;;;;;;;;;;;;;;;12.66;100.00;99767.19;5003850;28;19968;-91
2022/10/25 13:05:04;;;;;;;;;;;;;;;12.66;100.00;99766.34;5004818;28;19914;-87
2022/10/25 13:07:31;;;;;;;;;;;;;;;12.64;100.00;99765.56;5020191;28;19924;-88
2022/10/25 13:10:14;;;;;;;;;;;;;;;12.64;100.00;99763.75;5003686;28;19914;-94
2022/10/25 13:12:40;;;;;;;;;;;;;;;12.67;100.00;99765.41;5003939;28;19918;-86
2022/10/25 13:15:05;;;;;;;;;;;;;;;12.66;100.00;99763.69;5004192;28;19968;-87
2022/10/25 13:17:39;;;;;;;;;;;;;;;12.67;100.00;99760.09;5004501;28;20016;-88
2022/10/25 13:20:31;;;;;;;;;;;;;;;12.66;100.00;99764.53;5003597;28;20360;-86
2022/10/25 13:23:26;;;;;;;;;;;;;;;12.66;100.00;99756.56;4992902;28;19968;-88
2022/10/25 13:25:51;;;;;;;;;;;;;;;12.67;100.00;99758.28;5003857;28;20008;-89
2022/10/25 13:28:20;;;;;;;;;;;;;;;12.68;100.00;99753.81;5003184;28;20009;-90
2022/10/25 13:30:55;;;;;;;;;;;;;;;;;;;;;
2022/10/25 13:33:27;;;;;;;;;;;;;;;12.69;100.00;99750.22;5004427;28;19918;-91
2022/10/25 13:36:01;;;;;;;;;;;;;;;12.66;100.00;99748.56;5003598;28;19918;-91
2022/10/25 13:38:44;;;;;;;;;;;;;;;12.66;100.00;99753.03;5002302;28;19914;-87
2022/10/25 13:41:14;;;;;;;;;;;;;;;12.66;100.00;99755.69;5018032;28;20051;-86
2022/10/25 13:44:24;;;;;;;;;;;;;;;;;;;;;
2022/10/25 13:46:56;;;;;;;;;;;;;;;12.68;100.00;99749.38;5022776;28;19923;-90
2022/10/25 13:49:31;;;;;;;;;;;;;;;;;;;;;
2022/10/25 13:52:10;;;;;;;;;;;;;;;;;;;;;
2022/10/25 13:54:49;;;;;;;;;;;;;;;12.71;100.00;99743.88;5061166;23;20376;-91
2022/10/25 13:57:43;;;;;;;;;;;;;;;;;;;;;
2022/10/25 14:00:34;;;;;;;;;;;;;;;12.76;100.00;99738.31;5023969;28;19924;-88
2022/10/25 14:03:06;;;;;;;;;;;;;;;12.74;100.00;99739.34;5015626;28;20365;-87
2022/10/25 14:05:52;;;;;;;;;;;;;;;12.74;100.00;99742.00;5023126;28;19921;-88
2022/10/25 14:08:29;;;;;;;;;;;;;;;12.75;100.00;99733.09;5022925;28;20420;-87
2022/10/25 14:10:54;;;;;;;;;;;;;;;12.75;100.00;99728.66;5005422;28;20063;-87
2022/10/25 14:16:35;;;;;;;;;;;;;;;12.74;100.00;99731.38;5016085;28;20300;-86
2022/10/25 14:19:20;;;;;;;;;;;;;;;12.72;100.00;99728.81;5022273;28;19971;-87
2022/10/25 14:22:10;;;;;;;;;;;;;;;12.73;100.00;99719.88;5004802;28;20311;-87
2022/10/25 14:24:42;;;;;;;;;;;;;;;12.71;100.00;99727.91;5004227;28;19917;-87
2022/10/25 14:30:24;;;;;;;;;;;;;;;12.97;100.00;99719.50;5023749;28;19922;-82
2022/10/25 14:32:56;;;;;;;;;;;;;;;13.40;100.00;99725.16;5022638;28;20017;-82
2022/10/25 14:35:23;;;;;;;;;;;;;;;14.09;100.00;99726.59;5022503;28;20432;-82
2022/10/25 14:37:49;;;;;;;;;;;;;;;14.63;100.00;99727.88;5021713;28;19917;-83
2022/10/25 14:40:22;;;;;;;;;;;;;;;14.88;100.00;99724.56;5005295;28;19924;-83
2022/10/25 14:42:47;;;;;;;;;;;;;;;14.03;100.00;99726.09;5023276;28;20402;-85
2022/10/25 14:45:18;;;;;;;;;;;;;;;13.55;100.00;99724.31;5005645;28;19917;-86
2022/10/25 14:47:43;;;;;;;;;;;;;;;13.27;100.00;99728.50;5005976;28;20396;-85
2022/10/25 14:50:13;;;;;;;;;;;;;;;13.11;100.00;99730.25;5022504;28;19923;-85
2022/10/25 14:52:38;;;;;;;;;;;;;;;12.93;100.00;99723.28;5022363;28;19917;-88
2022/10/25 14:55:07;;;;;;;;;;;;;;;12.80;100.00;99720.44;5021635;28;19931;-84
2022/10/25 14:57:33;;;;;;;;;;;;;;;12.64;100.00;99733.66;5012735;28;20340;-90
2022/10/25 15:00:00;;;;;;;;;;;;;;;12.49;100.00;99727.31;5004433;28;20495;-90
2022/10/25 15:02:28;;;;;;;;;;;;;;;12.32;100.00;99730.88;5022108;28;19921;-94
2022/10/25 15:04:56;;;;;;;;;;;;;;;12.10;100.00;99728.44;5022503;28;19952;-91
2022/10/25 15:07:28;;;;;;;;;;;;;;;11.97;100.00;99725.53;5023047;28;19918;-87
2022/10/25 15:09:54;;;;;;;;;;;;;;;11.84;100.00;99724.38;5003868;28;19924;-92
2022/10/25 15:12:21;;;;;;;;;;;;;;;11.71;100.00;99719.69;5022529;28;19968;-85
2022/10/25 15:14:47;;;;;;;;;;;;;;;11.64;100.00;99724.41;5022726;28;20290;-93
2022/10/25 15:17:14;;;;;;;;;;;;;;;11.62;100.00;99720.97;5012959;28;19921;-87
2022/10/25 15:20:00;;;;;;;;;;;;;;;11.62;100.00;99715.66;5022222;28;20549;-87
2022/10/25 15:22:26;;;;;;;;;;;;;;;11.59;100.00;99717.63;5021794;28;19925;-85
2022/10/25 15:24:54;;;;;;;;;;;;;;;11.64;100.00;99713.78;5003308;28;19971;-86
2022/10/25 15:27:40;;;;;;;;;;;;;;;11.75;100.00;99705.31;5003776;28;19917;-91
2022/10/25 15:30:25;;;;;;;;;;;;;;;11.79;100.00;99704.22;5022733;28;19971;-86
2022/10/25 15:32:51;;;;;;;;;;;;;;;11.85;100.00;99704.84;5021190;28;19917;-85
2022/10/25 15:35:23;;;;;;;;;;;;;;;11.24;100.00;99701.56;5005001;28;20292;-85
2022/10/25 15:38:13;;;;;;;;;;;;;;;10.99;100.00;99700.06;5021193;28;20314;-93
2022/10/25 15:40:40;;;;;;;;;;;;;;;10.97;100.00;99687.81;5023429;28;19922;-85
2022/10/25 15:43:05;;;;;;;;;;;;;;;10.87;100.00;99690.03;5026093;28;19921;-87
2022/10/25 15:45:32;;;;;;;;;;;;;;;10.79;100.00;99681.56;5025153;28;20275;-87
2022/10/25 15:48:00;;;;;;;;;;;;;;;10.77;100.00;99689.59;5025464;28;19917;-88
2022/10/25 15:50:29;;;;;;;;;;;;;;;10.66;100.00;99681.25;5013339;28;19923;-85
2022/10/25 15:52:54;;;;;;;;;;;;;;;10.57;100.00;99676.38;4995491;28;19921;-85
2022/10/25 15:55:31;;;;;;;;;;;;;;;10.51;100.00;99669.53;5013748;28;20307;-87
2022/10/25 15:57:57;;;;;;;;;;;;;;;10.48;100.00;99672.31;4996884;28;19913;-86
2022/10/25 16:00:23;;;;;;;;;;;;;;;10.39;100.00;99668.31;5013536;28;19975;-85
2022/10/25 16:02:48;;;;;;;;;;;;;;;10.37;100.00;99664.88;4997277;28;19925;-85
2022/10/25 16:05:24;;;;;;;;;;;;;;;10.35;100.00;99666.72;4996937;28;19918;-85
2022/10/25 16:07:50;;;;;;;;;;;;;;;10.30;100.00;99661.56;4995850;28;19964;-85
2022/10/25 16:10:27;;;;;;;;;;;;;;;10.30;100.00;99664.22;4991543;28;20078;-88
2022/10/25 16:13:00;;;;;;;;;;;;;;;10.29;100.00;99657.22;5013027;28;19969;-91
2022/10/25 16:15:26;;;;;;;;;;;;;;;10.29;100.00;99656.34;5001896;28;19917;-89
2022/10/25 16:17:51;;;;;;;;;;;;;;;10.26;100.00;99651.19;5026087;28;19921;-93
2022/10/25 16:20:21;;;;;;;;;;;;;;;10.20;100.00;99662.06;5007410;28;19917;-92
2022/10/25 16:22:47;;;;;;;;;;;;;;;10.14;100.00;99649.94;5007915;28;20004;-86
2022/10/25 16:25:13;;;;;;;;;;;;;;;10.11;100.00;99647.41;5024310;28;20395;-86
2022/10/25 16:27:39;;;;;;;;;;;;;;;10.13;100.00;99646.44;5023584;28;20411;-87
2022/10/25 16:30:25;;;;;;;;;;;;;;;;;;;;;
2022/10/25 16:32:56;;;;;;;;;;;;;;;10.07;100.00;99635.22;5025149;28;19919;-90
2022/10/25 16:35:24;;;;;;;;;;;;;;;10.08;100.00;99639.59;5023731;28;20428;-90
2022/10/25 16:37:52;;;;;;;;;;;;;;;10.06;100.00;99639.69;5008285;28;19913;-93
2022/10/25 16:40:19;;;;;;;;;;;;;;;10.05;100.00;99637.97;5012313;28;20352;-93
2022/10/25 16:42:45;;;;;;;;;;;;;;;10.13;100.00;99638.50;4996992;28;19972;-86
2022/10/25 16:45:26;;;;;;;;;;;;;;;11.05;100.00;99636.13;5013725;28;20365;-89
2022/10/25 16:47:54;;;;;;;;;;;;;;;10.47;100.00;99636.19;5013064;28;19924;-89
2022/10/25 16:50:22;;;;;;;;;;;;;;;10.29;100.00;99632.50;5011681;28;19917;-88
2022/10/25 16:52:51;;;;;;;;;;;;;;;10.17;100.00;99636.56;4995970;28;20359;-91
2022/10/25 16:55:16;;;;;;;;;;;;;;;10.10;100.00;99635.97;5011684;28;20385;-88
2022/10/25 16:57:42;;;;;;;;;;;;;;;10.07;100.00;99632.59;5012440;28;19960;-85
2022/10/25 17:00:07;;;;;;;;;;;;;;;10.04;100.00;99638.03;5012189;28;19929;-90
2022/10/25 17:02:33;;;;;;;;;;;;;;;9.99;100.00;99633.78;4987164;28;19926;-86
2022/10/25 17:04:58;;;;;;;;;;;;;;;9.99;100.00;99639.09;5019239;28;19913;-84
2022/10/25 17:07:24;;;;;;;;;;;;;;;9.93;100.00;99644.63;5024064;28;19965;-89
2022/10/25 17:09:49;;;;;;;;;;;;;;;9.93;100.00;99634.03;5023195;28;19921;-91
2022/10/25 17:12:14;;;;;;;;;;;;;;;9.91;100.00;99635.06;5007154;28;19959;-84
2022/10/25 17:14:40;;;;;;;;;;;;;;;9.86;100.00;99640.53;5024349;28;19921;-85
2022/10/25 17:17:05;;;;;;;;;;;;;;;9.88;100.00;99641.34;5023579;28;19917;-84
2022/10/25 17:19:30;;;;;;;;;;;;;;;9.88;100.00;99635.19;5024043;28;19918;-86
2022/10/25 17:21:56;;;;;;;;;;;;;;;9.81;100.00;99639.84;5023867;28;19921;-88
2022/10/25 17:24:21;;;;;;;;;;;;;;;9.77;100.00;99633.00;5022784;28;20367;-84
2022/10/25 17:26:49;;;;;;;;;;;;;;;9.79;100.00;99629.31;5024341;28;19949;-92
2022/10/25 17:29:17;;;;;;;;;;;;;;;9.79;100.00;99628.47;5024544;28;19921;-88
2022/10/25 17:31:43;;;;;;;;;;;;;;;9.75;100.00;99626.91;5023746;28;19918;-86
2022/10/25 17:34:09;;;;;;;;;;;;;;;9.75;100.00;99617.19;5023497;28;20383;-87
2022/10/25 17:36:36;;;;;;;;;;;;;;;9.74;100.00;99625.16;5006971;28;19967;-89
2022/10/25 17:39:03;;;;;;;;;;;;;;;9.73;100.00;99626.97;5023174;28;19922;-86
2022/10/25 17:41:28;;;;;;;;;;;;;;;9.70;100.00;99627.09;5024441;28;19922;-88
2022/10/25 17:43:53;;;;;;;;;;;;;;;9.66;100.00;99635.22;5022866;28;19917;-85
2022/10/25 17:46:19;;;;;;;;;;;;;;;9.65;100.00;99631.69;5023794;28;19928;-86
2022/10/25 17:48:45;;;;;;;;;;;;;;;9.67;100.00;99632.50;5006795;28;19928;-90
2022/10/25 17:51:14;;;;;;;;;;;;;;;9.67;100.00;99631.63;5024124;28;19917;-91
2022/10/25 17:53:42;;;;;;;;;;;;;;;9.67;100.00;99631.63;5004806;28;19983;-87
2022/10/25 17:56:23;;;;;;;;;;;;;;;9.59;100.00;99631.97;5021646;28;19921;-89
2022/10/25 17:58:49;;;;;;;;;;;;;;;9.60;100.00;99623.94;5014340;28;20373;-89
2022/10/25 18:01:17;;;;;;;;;;;;;;;9.58;100.00;99617.00;5023148;28;19927;-86
2022/10/25 18:03:45;;;;;;;;;;;;;;;9.55;100.00;99625.94;5023588;28;20024;-88
2022/10/25 18:06:11;;;;;;;;;;;;;;;9.56;100.00;99625.00;5005454;28;20028;-89
2022/10/25 18:08:39;;;;;;;;;;;;;;;9.53;100.00;99632.22;5005921;28;19939;-88
2022/10/25 18:11:33;;;;;;;;;;;;;;;9.53;100.00;99635.72;5023008;28;19992;-88
2022/10/25 18:13:59;;;;;;;;;;;;;;;9.52;100.00;99627.84;5021300;28;19921;-86
2022/10/25 18:16:29;;;;;;;;;;;;;;;9.50;100.00;99635.84;5005294;28;19956;-90
2022/10/25 18:18:55;;;;;;;;;;;;;;;9.48;100.00;99643.00;5005566;28;20315;-87
2022/10/25 18:21:21;;;;;;;;;;;;;;;9.49;100.00;99643.84;5023253;28;19921;-87
2022/10/25 18:23:48;;;;;;;;;;;;;;;9.49;100.00;99638.56;5002301;28;19975;-86
2022/10/25 18:26:16;;;;;;;;;;;;;;;9.41;100.00;99636.22;5011290;28;19921;-85
2022/10/25 18:28:41;;;;;;;;;;;;;;;9.46;100.00;99634.22;5004913;28;19943;-84
2022/10/25 18:31:08;;;;;;;;;;;;;;;9.47;100.00;99625.38;5022559;28;19917;-86
2022/10/25 18:33:34;;;;;;;;;;;;;;;9.42;100.00;99625.56;5019366;28;19921;-85
2022/10/25 18:36:04;;;;;;;;;;;;;;;9.37;100.00;99630.19;5021164;28;20293;-90
2022/10/25 18:38:29;;;;;;;;;;;;;;;9.36;100.00;99627.59;5003995;28;19918;-85
2022/10/25 18:40:55;;;;;;;;;;;;;;;9.38;100.00;99637.22;5022603;28;20276;-86
2022/10/25 18:43:22;;;;;;;;;;;;;;;9.32;100.00;99634.81;5009602;28;19986;-86
2022/10/25 18:45:51;;;;;;;;;;;;;;;9.39;100.00;99632.78;5012857;28;19913;-87
2022/10/25 18:48:16;;;;;;;;;;;;;;;9.34;100.00;99629.47;5013088;28;20285;-85
2022/10/25 18:50:41;;;;;;;;;;;;;;;9.32;100.00;99628.63;5005011;28;19921;-84
2022/10/25 18:53:07;;;;;;;;;;;;;;;9.36;100.00;99635.53;5003324;28;19928;-87
2022/10/25 18:55:34;;;;;;;;;;;;;;;9.31;100.00;99629.59;5018226;28;20014;-86
2022/10/25 18:58:02;;;;;;;;;;;;;;;9.28;100.00;99635.84;5021607;28;19919;-84
2022/10/25 19:00:30;;;;;;;;;;;;;;;9.32;100.00;99636.56;5012463;28;19918;-84
2022/10/25 19:02:56;;;;;;;;;;;;;;;9.32;100.00;99631.28;5004420;28;19921;-86
2022/10/25 19:05:22;;;;;;;;;;;;;;;9.28;100.00;99635.84;5003710;28;20419;-84
2022/10/25 19:07:47;;;;;;;;;;;;;;;9.26;100.00;99627.13;5022148;28;19921;-88
2022/10/25 19:10:13;;;;;;;;;;;;;;;9.27;100.00;99615.63;5021204;28;19917;-86
2022/10/25 19:12:38;;;;;;;;;;;;;;;9.30;100.00;99622.56;5020895;28;20364;-84